ADDS METAR Data INFO
IDs: Format: Raw Decoded Include TAF

Data at: 1059 UTC 24 Nov 2017

KCOT 241053Z AUTO 00000KT 10SM CLR 06/00 A3002 RMK AO2 SLP161 T00610000
KCOT 240953Z AUTO 00000KT 10SM CLR 07/00 A3003 RMK AO2 SLP166 T00670000
KCOT 240853Z AUTO 14004KT 10SM CLR 08/00 A3004 RMK AO2 SLP168 T00830000 58013
KCOT 240753Z AUTO 14005KT 10SM CLR 09/00 A3006 RMK AO2 SLP173 T00890000
KCOT 240653Z AUTO 14004KT 10SM CLR 09/00 A3007 RMK AO2 SLP178 T00890000
KCOT 240553Z AUTO 16005KT 10SM CLR 10/M01 A3008 RMK AO2 SLP180 T01001011 10178 20089 402330006 58006
KCOT 240453Z AUTO 16004KT 10SM CLR 12/M02 A3009 RMK AO2 SLP183 T01171017
KCOT 240353Z AUTO 13004KT 10SM CLR 12/M01 A3009 RMK AO2 SLP186 T01221011
KCOT 240253Z AUTO 11004KT 10SM CLR 13/M01 A3009 RMK AO2 SLP188 T01331011 52009
KCOT 240153Z AUTO 09005KT 10SM CLR 13/01 A3008 RMK AO2 SLP185 T01330011
KCOT 240053Z AUTO 15004KT 10SM CLR 14/01 A3008 RMK AO2 SLP184 T01440006
KCOT 232353Z AUTO 00000KT 10SM CLR 18/00 A3007 RMK AO2 SLP180 T01830000 10233 20183 55007
KCOT 232253Z AUTO 00000KT 10SM CLR 21/M01 A3007 RMK AO2 SLP178 T02111011
KCOT 232153Z AUTO 29004KT 10SM CLR 22/M02 A3007 RMK AO2 SLP180 T02221017
KCOT 232053Z AUTO 31003KT 10SM CLR 23/M02 A3009 RMK AO2 SLP184 T02281022 56036
KCOT 231953Z AUTO 02005KT 10SM CLR 22/M03 A3012 RMK AO2 SLP196 T02221028
KCOT 231853Z AUTO 00000KT 10SM CLR 20/M04 A3015 RMK AO2 SLP207 T02001039
KCOT 231753Z AUTO 00000KT 10SM CLR 19/M06 A3019 RMK AO2 SLP221 T01891056 10189 20006 58018
KCOT 231653Z AUTO 12004KT 10SM CLR 17/M07 A3023 RMK AO2 SLP233 T01671067
KCOT 231643Z AUTO 17006KT 10SM CLR 16/M07 A3023 RMK AO2 T01611067
KCOT 231634Z AUTO 12004KT 2 1/2SM HZ CLR 16/M06 A3024 RMK AO2 T01561061
KCOT 231553Z AUTO 14004KT 10SM CLR 14/M06 A3025 RMK AO2 SLP240 T01391056
KCOT 231453Z AUTO 07005KT 10SM CLR 11/M04 A3025 RMK AO2 SLP240 T01111044 53007
KCOT 231353Z AUTO 04004KT 10SM CLR 07/M02 A3024 RMK AO2 SLP238 T00671022
KCOT 231253Z AUTO 00000KT 10SM CLR 01/M02 A3023 RMK AO2 SLP235 T00111017
KCOT 231153Z AUTO 03003KT 10SM CLR 03/M01 A3023 RMK AO2 SLP234 T00281011 10100 20017 56005
KCOT 231053Z AUTO 00000KT 10SM CLR 03/M01 A3023 RMK AO2 SLP233 T00281011
KCOT 230953Z AUTO 34005KT 10SM CLR 03/M01 A3024 RMK AO2 SLP237 T00331006
KCOT 230853Z AUTO 33004KT 10SM CLR 04/00 A3024 RMK AO2 SLP238 T00440000 55004
KCOT 230753Z AUTO 00000KT 10SM CLR 06/M01 A3024 RMK AO2 SLP238 T00611006
KCOT 230653Z AUTO 00000KT 10SM CLR 06/M01 A3025 RMK AO2 SLP241 T00611011
KCOT 230553Z AUTO 08006KT 10SM CLR 09/M01 A3026 RMK AO2 SLP242 T00941006 10167 20094 402110094 58005
KCOT 230453Z AUTO 07007KT 10SM CLR 11/00 A3027 RMK AO2 SLP245 T01110000
KCOT 230353Z AUTO 05005KT 10SM CLR 10/01 A3028 RMK AO2 SLP250 T01000011
KCOT 230253Z AUTO 04004KT 10SM CLR 11/02 A3027 RMK AO2 SLP248 T01110017 53009
KCOT 230153Z AUTO 06005KT 10SM CLR 13/02 A3026 RMK AO2 SLP245 T01280022
KCOT 230053Z AUTO 33003KT 10SM CLR 13/03 A3025 RMK AO2 SLP240 T01280028
KCOT 222353Z AUTO 32004KT 10SM CLR 17/02 A3024 RMK AO2 SLP237 T01670022 10211 20167 51002